createdAt,value
2022-08-28T10:23:17.881Z,26.05
2022-08-28T10:26:35.826Z,26.03
2022-08-28T10:29:51.254Z,25.87
2022-08-28T10:33:15.806Z,25.87
2022-08-28T10:36:07.716Z,25.66
2022-08-28T10:39:22.473Z,25.82
2022-08-28T10:42:08.398Z,25.65
2022-08-28T10:45:04.824Z,25.84
2022-08-28T10:47:59.704Z,25.90
2022-08-28T10:51:02.487Z,25.84
2022-08-28T10:53:55.986Z,26.11
2022-08-28T10:56:56.111Z,26.01
2022-08-28T10:59:44.624Z,26.21
2022-08-28T11:02:30.973Z,26.15
2022-08-28T11:05:21.811Z,26.16
2022-08-28T11:08:23.664Z,26.02
2022-08-28T11:11:14.947Z,26.13
2022-08-28T11:14:01.863Z,26.16
2022-08-28T11:16:50.206Z,26.19
2022-08-28T11:19:45.497Z,26.23
2022-08-28T11:22:43.813Z,26.13
2022-08-28T11:25:45.873Z,25.99
2022-08-28T11:28:36.869Z,26.15
2022-08-28T11:31:30.939Z,25.98
2022-08-28T11:34:54.768Z,26.13
2022-08-28T11:37:46.695Z,26.14
2022-08-28T11:40:32.704Z,26.07
2022-08-28T11:43:34.884Z,25.98
2022-08-28T11:46:31.439Z,25.93
2022-08-28T11:49:23.635Z,25.75
2022-08-28T11:52:42.441Z,25.94
2022-08-28T11:55:55.626Z,25.68
2022-08-28T11:59:11.739Z,25.79
2022-08-28T12:02:36.869Z,25.78
2022-08-28T12:05:32.162Z,25.84
2022-08-28T12:08:39.736Z,25.86
2022-08-28T12:11:44.943Z,25.96
2022-08-28T12:14:41.390Z,25.97
2022-08-28T12:17:43.580Z,25.90
2022-08-28T12:20:36.106Z,25.94
2022-08-28T12:23:39.858Z,25.95
2022-08-28T12:26:30.401Z,25.80
2022-08-28T12:29:38.388Z,26.08
2022-08-28T12:32:46.518Z,26.05
2022-08-28T12:35:32.185Z,25.71
2022-08-28T12:38:21.767Z,25.81
2022-08-28T12:41:17.189Z,25.71
2022-08-28T12:44:06.505Z,25.95
2022-08-28T12:46:52.733Z,25.92
2022-08-28T12:49:39.109Z,25.90
2022-08-28T12:52:27.256Z,25.75
2022-08-28T12:55:13.357Z,25.61
2022-08-28T12:57:59.393Z,25.95
2022-08-28T13:00:53.064Z,25.93
2022-08-28T13:03:49.752Z,25.95
2022-08-28T13:06:38.578Z,25.91
2022-08-28T13:09:26.665Z,25.89
2022-08-28T13:12:54.925Z,25.86
2022-08-28T13:15:57.648Z,25.74
2022-08-28T13:18:47.521Z,25.81
2022-08-28T13:21:58.708Z,25.65
2022-08-28T13:24:48.338Z,25.63
2022-08-28T13:27:34.581Z,25.80
2022-08-28T13:30:29.409Z,25.62
2022-08-28T13:33:16.232Z,25.81
2022-08-28T13:36:21.406Z,25.68
2022-08-28T13:39:07.309Z,25.64
2022-08-28T13:41:56.169Z,25.58
2022-08-28T13:44:52.824Z,25.74
2022-08-28T13:47:38.672Z,25.47
2022-08-28T13:50:24.785Z,25.71
2022-08-28T13:53:11.419Z,25.74
2022-08-28T13:56:00.278Z,25.66
2022-08-28T13:58:47.839Z,25.73
2022-08-28T14:02:02.254Z,25.71
2022-08-28T14:04:48.249Z,25.56
2022-08-28T14:07:34.522Z,25.63
2022-08-28T14:10:21.716Z,25.70
2022-08-28T14:13:08.286Z,25.61
2022-08-28T14:15:55.929Z,25.54
2022-08-28T14:18:42.382Z,25.74
2022-08-28T14:21:29.427Z,25.46
2022-08-28T14:24:15.366Z,25.68
2022-08-28T14:27:02.606Z,25.60
2022-08-28T14:29:49.280Z,25.59
2022-08-28T14:32:37.507Z,25.62
2022-08-28T14:35:26.305Z,25.30
2022-08-28T14:38:13.362Z,25.55
2022-08-28T14:40:58.994Z,25.36
2022-08-28T14:43:45.541Z,25.41
2022-08-28T14:46:36.260Z,25.36
2022-08-28T14:49:23.267Z,25.35
2022-08-28T14:52:09.032Z,25.34
2022-08-28T14:54:55.643Z,25.26
2022-08-28T14:57:42.255Z,25.21
2022-08-28T15:00:31.515Z,25.24
2022-08-28T15:03:18.914Z,25.08
2022-08-28T15:06:09.015Z,25.17
2022-08-28T15:09:01.412Z,24.92
2022-08-28T15:11:47.467Z,25.15
2022-08-28T15:14:36.499Z,25.04
2022-08-28T15:17:33.671Z,25.04
2022-08-28T15:20:20.979Z,24.89
2022-08-28T15:23:08.068Z,24.70
2022-08-28T15:25:54.147Z,24.71
2022-08-28T15:28:40.366Z,24.66
2022-08-28T15:31:26.625Z,24.79
2022-08-28T15:34:19.869Z,24.53
2022-08-28T15:37:07.706Z,24.60
2022-08-28T15:40:12.814Z,24.45
2022-08-28T15:42:58.522Z,24.54
2022-08-28T15:45:45.441Z,24.48
2022-08-28T15:48:32.134Z,24.24
2022-08-28T15:51:23.870Z,24.35
2022-08-28T15:54:12.632Z,23.99
2022-08-28T15:56:59.175Z,24.30
2022-08-28T15:59:50.306Z,24.00
2022-08-28T16:02:38.503Z,24.21
2022-08-28T16:05:28.045Z,24.12
2022-08-28T16:08:17.361Z,23.92
2022-08-28T16:11:04.158Z,24.14
2022-08-28T16:13:50.983Z,24.07
2022-08-28T16:16:37.262Z,24.06
2022-08-28T16:19:26.944Z,23.99
2022-08-28T16:22:34.152Z,23.95
2022-08-28T16:25:20.511Z,23.86
2022-08-28T16:28:06.902Z,23.72
2022-08-28T16:30:53.177Z,23.71
2022-08-28T16:33:42.037Z,23.70
2022-08-28T16:36:31.144Z,23.84
2022-08-28T16:39:17.240Z,23.72
2022-08-28T16:42:04.192Z,23.72
2022-08-28T16:44:50.426Z,23.78
2022-08-28T16:47:36.840Z,23.53
2022-08-28T16:50:23.665Z,23.66
2022-08-28T16:53:10.689Z,23.59
2022-08-28T16:55:57.160Z,23.70
2022-08-28T16:58:44.278Z,23.71
2022-08-28T17:01:30.441Z,23.58
2022-08-28T17:04:17.873Z,23.42
2022-08-28T17:07:04.378Z,23.36
2022-08-28T17:09:52.972Z,23.54
2022-08-28T17:12:39.892Z,23.47
2022-08-28T17:15:27.031Z,23.23
2022-08-28T17:18:13.432Z,23.38
2022-08-28T17:21:18.090Z,23.12
2022-08-28T17:24:04.459Z,23.29
2022-08-28T17:26:50.967Z,23.33
2022-08-28T17:29:39.501Z,23.32
2022-08-28T17:32:30.123Z,23.27
2022-08-28T17:35:17.011Z,23.14
2022-08-28T17:38:03.471Z,22.95
2022-08-28T17:40:49.283Z,23.05
2022-08-28T17:43:37.357Z,23.04
2022-08-28T17:46:23.070Z,22.86
2022-08-28T17:49:10.144Z,22.84
2022-08-28T17:51:56.324Z,22.73
2022-08-28T17:54:45.252Z,22.80
2022-08-28T17:57:31.662Z,22.93
2022-08-28T18:00:18.911Z,22.86
2022-08-28T18:03:07.865Z,22.70
2022-08-28T18:05:53.951Z,22.62
2022-08-28T18:08:39.768Z,22.80
2022-08-28T18:11:25.831Z,22.57
2022-08-28T18:14:11.956Z,22.67
2022-08-28T18:16:58.306Z,22.72
2022-08-28T18:19:44.714Z,22.66
2022-08-28T18:22:31.512Z,22.46
2022-08-28T18:25:36.410Z,22.62
2022-08-28T18:28:24.280Z,22.54
2022-08-28T18:31:11.910Z,22.62
2022-08-28T18:33:59.154Z,22.55
2022-08-28T18:36:44.944Z,22.26
2022-08-28T18:39:31.399Z,22.47
2022-08-28T18:42:18.217Z,22.35
2022-08-28T18:45:07.745Z,22.38
2022-08-28T18:47:53.852Z,21.89
2022-08-28T18:50:43.200Z,22.35
2022-08-28T18:53:31.896Z,22.31
2022-08-28T18:56:19.870Z,22.12
2022-08-28T18:59:07.773Z,22.16
2022-08-28T19:01:53.861Z,22.07
2022-08-28T19:04:42.747Z,21.93
2022-08-28T19:07:28.937Z,22.30
2022-08-28T19:10:32.754Z,22.18
2022-08-28T19:13:19.785Z,22.07
2022-08-28T19:16:05.750Z,22.21
2022-08-28T19:18:54.714Z,22.09
2022-08-28T19:21:41.554Z,22.03
2022-08-28T19:24:33.695Z,21.92
2022-08-28T19:27:19.674Z,22.05
2022-08-28T19:30:08.547Z,21.86
2022-08-28T19:32:55.574Z,21.97
2022-08-28T19:35:41.918Z,21.97
2022-08-28T19:38:30.868Z,21.98
2022-08-28T19:41:17.644Z,21.93
2022-08-28T19:44:05.092Z,22.09
2022-08-28T19:46:51.566Z,22.05
2022-08-28T19:49:37.531Z,21.87
2022-08-28T19:52:23.927Z,22.07
2022-08-28T19:55:22.940Z,21.94
2022-08-28T19:58:10.681Z,22.18
2022-08-28T20:00:57.426Z,22.20
2022-08-28T20:03:45.512Z,22.24
2022-08-28T20:06:32.659Z,22.10
2022-08-28T20:09:18.876Z,22.06
2022-08-28T20:12:06.219Z,22.03
2022-08-28T20:14:52.650Z,22.09
2022-08-28T20:17:43.746Z,22.07
2022-08-28T20:20:39.334Z,22.05
2022-08-28T20:23:24.875Z,22.05
2022-08-28T20:26:11.981Z,22.14
2022-08-28T20:28:57.875Z,22.10
2022-08-28T20:31:47.406Z,22.07
2022-08-28T20:34:33.527Z,22.11
2022-08-28T20:37:19.547Z,22.03
2022-08-28T20:40:09.911Z,22.08
2022-08-28T20:42:58.638Z,22.04
2022-08-28T20:45:44.697Z,21.92
2022-08-28T20:48:34.486Z,21.84
2022-08-28T20:51:41.784Z,22.01
2022-08-28T20:54:33.799Z,21.87
2022-08-28T20:57:21.441Z,21.83
2022-08-28T21:00:09.907Z,21.95
2022-08-28T21:02:57.628Z,21.84
2022-08-28T21:05:47.674Z,21.98
2022-08-28T21:08:35.147Z,21.85
2022-08-28T21:11:21.500Z,22.05
2022-08-28T21:14:07.667Z,21.37
2022-08-28T21:16:53.309Z,21.87
2022-08-28T21:19:40.762Z,21.88
2022-08-28T21:22:27.834Z,21.80
2022-08-28T21:25:15.880Z,21.93
2022-08-28T21:28:04.637Z,21.74
2022-08-28T21:30:50.791Z,21.88
2022-08-28T21:33:37.733Z,21.87
2022-08-28T21:36:23.879Z,21.94
2022-08-28T21:39:11.397Z,21.95
2022-08-28T21:41:57.488Z,21.90
2022-08-28T21:44:52.024Z,21.66
2022-08-28T21:47:38.152Z,21.91
2022-08-28T21:50:24.247Z,21.94
2022-08-28T21:53:10.557Z,22.02
2022-08-28T21:55:59.033Z,21.99
2022-08-28T21:58:44.988Z,21.86
2022-08-28T22:01:32.450Z,21.88
2022-08-28T22:04:17.976Z,21.85
2022-08-28T22:07:05.688Z,21.69
2022-08-28T22:09:53.216Z,21.53
2022-08-28T22:12:39.225Z,21.45
2022-08-28T22:15:25.479Z,21.49
2022-08-28T22:18:13.543Z,21.08
2022-08-28T22:21:19.481Z,21.11
2022-08-28T22:24:06.551Z,21.05
2022-08-28T22:26:54.432Z,21.11
2022-08-28T22:29:43.560Z,21.37
2022-08-28T22:32:29.409Z,21.38
2022-08-28T22:35:15.668Z,21.33
2022-08-28T22:38:01.523Z,21.67
2022-08-28T22:40:47.944Z,21.43
2022-08-28T22:43:34.381Z,21.55
2022-08-28T22:46:21.401Z,21.48
2022-08-28T22:49:07.625Z,21.52
2022-08-28T22:51:54.521Z,21.64
2022-08-28T22:54:42.284Z,21.35
2022-08-28T22:57:28.437Z,21.62
2022-08-28T23:00:21.343Z,21.54
2022-08-28T23:03:08.697Z,21.60
2022-08-28T23:05:56.427Z,21.55
2022-08-28T23:08:43.226Z,21.56
2022-08-28T23:11:29.218Z,21.44
2022-08-28T23:14:15.352Z,21.29
2022-08-28T23:17:02.722Z,21.29
2022-08-28T23:19:49.105Z,21.25
2022-08-28T23:22:35.990Z,21.39
2022-08-28T23:25:23.376Z,21.45
2022-08-28T23:28:09.093Z,21.54
2022-08-28T23:30:56.244Z,21.53
2022-08-28T23:33:42.310Z,21.13
2022-08-28T23:36:28.983Z,21.25
2022-08-28T23:39:15.020Z,21.34
2022-08-28T23:42:05.920Z,20.90
2022-08-28T23:44:51.534Z,20.99
2022-08-28T23:47:40.463Z,21.27
2022-08-28T23:50:26.909Z,20.92
2022-08-28T23:53:13.075Z,21.17
2022-08-28T23:55:59.548Z,21.03
2022-08-28T23:58:46.430Z,21.13
